Time;durP1;ratioP1;P1;durP2;ratioP2;P2;SDS_P1;SDS_P2;PMS_P1;PMS_P2;Temp;Humidity;BMP_temperature;BMP_pressure;BME280_temperature;BME280_humidity;BME280_pressure;Samples;Min_cycle;Max_cycle;Signal;HPM_P1;HPM_P2
2021/06/22 00:02:08;;;;;;;6.73;1.20;;;;;;;17.37;nan;96106.28;3507962;40;20740;-72
2021/06/22 00:04:36;;;;;;;6.17;1.80;;;;;;;17.02;nan;96107.28;3509441;40;20600;-73
2021/06/22 00:07:04;;;;;;;3.43;1.90;;;;;;;17.08;nan;96114.56;3509408;40;20447;-73
2021/06/22 00:09:32;;;;;;;6.10;1.30;;;;;;;17.03;nan;96116.84;3509321;40;20806;-73
2021/06/22 00:12:02;;;;;;;13.63;1.73;;;;;;;16.94;nan;96120.47;3511451;40;20444;-74
2021/06/22 00:14:30;;;;;;;9.13;1.70;;;;;;;16.97;nan;96122.78;3509192;40;20518;-73
2021/06/22 00:16:58;;;;;;;4.83;1.50;;;;;;;16.79;nan;96114.88;3508426;40;20713;-72
2021/06/22 00:19:27;;;;;;;6.67;1.50;;;;;;;16.49;nan;96100.31;3508107;40;20918;-72
2021/06/22 00:21:55;;;;;;;2.40;1.37;;;;;;;16.63;nan;96099.75;3511708;40;21111;-73
2021/06/22 00:24:25;;;;;;;5.50;1.73;;;;;;;16.81;nan;96099.69;3509937;40;20852;-72
2021/06/22 00:26:53;;;;;;;3.30;1.80;;;;;;;16.91;nan;96089.84;3508276;40;20560;-72
2021/06/22 00:29:23;;;;;;;7.07;1.47;;;;;;;17.04;nan;96089.44;3509025;40;20587;-72
2021/06/22 00:31:51;;;;;;;4.10;1.20;;;;;;;17.00;nan;96096.84;3507478;40;20814;-72
2021/06/22 00:34:19;;;;;;;4.10;1.30;;;;;;;16.91;nan;96096.97;3508221;40;20886;-72
2021/06/22 00:36:48;;;;;;;7.50;1.83;;;;;;;16.70;nan;96094.66;3508865;40;20765;-72
2021/06/22 00:39:16;;;;;;;5.33;1.60;;;;;;;16.41;nan;96086.03;3507761;40;20853;-72
2021/06/22 00:41:44;;;;;;;4.70;1.57;;;;;;;15.95;nan;96085.31;3508935;40;20797;-72
2021/06/22 00:44:12;;;;;;;9.70;1.83;;;;;;;16.34;nan;96082.34;3509458;40;20490;-72
2021/06/22 00:46:40;;;;;;;6.90;2.00;;;;;;;16.49;nan;96089.75;3509997;40;20674;-72
2021/06/22 00:49:08;;;;;;;4.13;1.67;;;;;;;16.25;nan;96099.13;3511798;40;20447;-73
2021/06/22 00:51:36;;;;;;;3.80;1.90;;;;;;;16.60;nan;96100.88;3511632;40;20474;-73
2021/06/22 00:54:06;;;;;;;9.57;1.90;;;;;;;16.66;nan;96091.50;3513262;40;20455;-74
2021/06/22 00:56:33;;;;;;;3.87;1.33;;;;;;;16.69;nan;96093.00;3516837;40;20459;-74
2021/06/22 00:59:02;;;;;;;4.53;1.70;;;;;;;16.53;nan;96083.16;3524499;40;20499;-73
2021/06/22 01:01:31;;;;;;;6.17;2.50;;;;;;;16.69;nan;96091.19;3531217;40;20520;-73
2021/06/22 01:03:59;;;;;;;9.23;1.77;;;;;;;16.63;nan;96090.97;3526279;40;20465;-72
2021/06/22 01:06:27;;;;;;;6.47;1.63;;;;;;;16.55;nan;96075.91;3530891;40;20502;-72
2021/06/22 01:08:55;;;;;;;17.50;2.30;;;;;;;16.58;nan;96081.72;3532366;40;20774;-73
2021/06/22 01:11:25;;;;;;;4.23;2.10;;;;;;;16.39;nan;96080.09;3534715;40;20770;-72
2021/06/22 01:13:53;;;;;;;2.13;1.73;;;;;;;16.15;nan;96056.13;3533629;40;20774;-72
2021/06/22 01:16:25;;;;;;;4.70;2.20;;;;;;;16.28;nan;96063.66;3533017;40;20465;-75
2021/06/22 01:19:00;;;;;;;4.20;2.67;;;;;;;16.47;nan;96065.28;3530394;40;20457;-73
2021/06/22 01:21:31;;;;;;;4.87;1.80;;;;;;;16.53;nan;96077.88;3530297;40;20659;-73
2021/06/22 01:24:05;;;;;;;2.80;2.10;;;;;;;16.37;nan;96084.69;3531233;40;20806;-73
2021/06/22 01:26:34;;;;;;;3.50;1.77;;;;;;;16.28;nan;96093.53;3533299;40;20867;-72
2021/06/22 01:29:04;;;;;;;6.73;1.93;;;;;;;15.88;nan;96100.13;3527960;40;20540;-72
2021/06/22 01:31:32;;;;;;;5.73;2.20;;;;;;;16.04;nan;96099.44;3529135;40;20739;-72
2021/06/22 01:33:59;;;;;;;4.13;2.20;;;;;;;16.11;nan;96091.72;3531333;40;20484;-72
2021/06/22 01:36:30;;;;;;;3.67;2.13;;;;;;;15.95;nan;96101.16;3531754;40;20462;-71
2021/06/22 01:38:59;;;;;;;5.57;2.30;;;;;;;15.83;nan;96081.25;3529413;40;20469;-72
2021/06/22 01:41:26;;;;;;;6.00;2.47;;;;;;;16.01;nan;96084.75;3519661;40;20933;-72
2021/06/22 01:43:54;;;;;;;12.90;2.23;;;;;;;15.97;nan;96086.00;3530263;40;20704;-72
2021/06/22 01:46:22;;;;;;;5.33;2.03;;;;;;;16.02;nan;96089.03;3522512;40;20537;-72
2021/06/22 01:48:51;;;;;;;4.83;3.10;;;;;;;15.91;nan;96093.72;3529735;40;20469;-72
2021/06/22 01:51:20;;;;;;;11.70;2.57;;;;;;;15.72;nan;96086.72;3522384;40;20730;-73
2021/06/22 01:53:54;;;;;;;4.10;2.43;;;;;;;15.93;nan;96087.28;3530659;40;20761;-72
2021/06/22 01:56:22;;;;;;;2.93;2.30;;;;;;;15.91;nan;96094.53;3533126;40;20855;-73
2021/06/22 01:58:50;;;;;;;13.50;2.67;;;;;;;16.03;nan;96081.94;3532387;40;20855;-72
2021/06/22 02:01:21;;;;;;;11.03;3.10;;;;;;;16.01;nan;96092.66;3535157;40;20745;-73
2021/06/22 02:03:49;;;;;;;10.10;2.90;;;;;;;15.79;nan;96093.09;3514606;40;20553;-73
2021/06/22 02:06:17;;;;;;;11.33;3.63;;;;;;;15.83;nan;96099.75;3529358;40;20802;-72
2021/06/22 02:08:45;;;;;;;10.53;3.97;;;;;;;15.78;nan;96094.09;3533518;40;20529;-72
2021/06/22 02:11:15;;;;;;;5.90;2.53;;;;;;;15.98;nan;96102.69;3528125;40;20532;-73
2021/06/22 02:13:42;;;;;;;4.60;3.13;;;;;;;15.92;nan;96098.84;3533029;40;20453;-73
2021/06/22 02:16:11;;;;;;;3.57;2.97;;;;;;;16.07;nan;96093.03;3531568;40;20536;-73
2021/06/22 02:18:43;;;;;;;4.17;2.60;;;;;;;16.20;nan;96104.88;3547533;40;20473;-72
2021/06/22 02:21:18;;;;;;;10.43;3.10;;;;;;;16.19;nan;96103.22;3550023;40;20901;-75
2021/06/22 02:23:47;;;;;;;6.63;3.43;;;;;;;16.23;nan;96095.81;3548908;40;20473;-73
2021/06/22 02:26:21;;;;;;;8.20;3.40;;;;;;;16.27;nan;96081.31;3545591;40;20541;-72
2021/06/22 02:28:49;;;;;;;5.20;3.30;;;;;;;16.45;nan;96088.41;3538654;40;20932;-72
2021/06/22 02:31:52;;;;;;;7.53;2.83;;;;;;;16.52;nan;96086.78;3553548;40;20473;-72
2021/06/22 02:34:26;;;;;;;7.73;3.00;;;;;;;16.45;nan;96080.47;3535517;40;20477;-72
2021/06/22 02:37:02;;;;;;;5.13;3.00;;;;;;;16.35;nan;96068.16;3553025;40;20469;-71
2021/06/22 02:39:34;;;;;;;7.63;3.27;;;;;;;16.49;nan;96079.16;3534436;40;21171;-73
2021/06/22 02:42:11;;;;;;;6.10;2.97;;;;;;;16.48;nan;96080.13;3555622;40;20468;-73
2021/06/22 02:44:44;;;;;;;3.60;2.70;;;;;;;16.38;nan;96078.41;3542645;40;20464;-72
2021/06/22 02:47:14;;;;;;;4.20;2.97;;;;;;;16.35;nan;96072.63;3543924;40;20470;-72
2021/06/22 02:49:43;;;;;;;4.73;3.50;;;;;;;16.48;nan;96069.56;3547893;40;20473;-72
2021/06/22 02:52:11;;;;;;;10.83;4.33;;;;;;;16.53;nan;96060.19;3534351;40;20547;-73
2021/06/22 02:54:39;;;;;;;8.20;2.90;;;;;;;16.42;nan;96060.44;3539809;40;20589;-70
2021/06/22 02:57:10;;;;;;;17.70;3.60;;;;;;;16.44;nan;96069.03;3540838;40;20706;-73
2021/06/22 02:59:39;;;;;;;10.53;3.03;;;;;;;16.51;nan;96072.72;3547291;40;20472;-73
2021/06/22 03:02:09;;;;;;;4.80;2.93;;;;;;;16.53;nan;96064.66;3529239;40;20857;-73
2021/06/22 03:04:37;;;;;;;11.50;3.50;;;;;;;16.45;nan;96069.91;3529794;40;21138;-73
2021/06/22 03:07:05;;;;;;;3.00;2.40;;;;;;;16.45;nan;96072.53;3527138;40;20442;-73
2021/06/22 03:09:33;;;;;;;7.53;3.10;;;;;;;16.41;nan;96064.91;3528695;40;20481;-73
2021/06/22 03:12:01;;;;;;;8.33;3.93;;;;;;;16.20;nan;96067.06;3528755;40;20882;-73
2021/06/22 03:14:31;;;;;;;10.07;3.20;;;;;;;16.30;nan;96059.88;3528684;40;20488;-73
2021/06/22 03:16:59;;;;;;;6.57;3.63;;;;;;;16.37;nan;96055.63;3529531;40;20711;-72
2021/06/22 03:19:27;;;;;;;7.50;3.53;;;;;;;16.42;nan;96057.78;3521441;40;20905;-73
2021/06/22 03:21:55;;;;;;;5.00;3.33;;;;;;;16.21;nan;96031.75;3528812;40;20858;-73
2021/06/22 03:24:23;;;;;;;6.77;3.73;;;;;;;16.39;nan;96048.38;3529882;40;20453;-73
2021/06/22 03:26:51;;;;;;;5.87;3.20;;;;;;;16.46;nan;96053.84;3529535;40;20943;-73
2021/06/22 03:29:20;;;;;;;6.07;2.73;;;;;;;16.46;nan;96060.97;3530417;40;20706;-73
2021/06/22 03:31:49;;;;;;;7.63;3.67;;;;;;;16.44;nan;96061.13;3528783;40;20471;-72
2021/06/22 03:34:17;;;;;;;7.43;3.30;;;;;;;16.29;nan;96066.16;3530412;40;20461;-72
2021/06/22 03:36:45;;;;;;;9.43;3.30;;;;;;;16.11;nan;96060.03;3534276;40;20716;-71
2021/06/22 03:39:13;;;;;;;8.77;3.33;;;;;;;16.09;nan;96054.94;3530427;40;20897;-73
2021/06/22 03:41:41;;;;;;;18.10;3.73;;;;;;;16.19;nan;96052.19;3531860;40;20474;-73
2021/06/22 03:44:09;;;;;;;4.00;3.27;;;;;;;16.27;nan;96049.63;3527737;40;20858;-72
2021/06/22 03:46:37;;;;;;;4.07;2.60;;;;;;;16.36;nan;96048.66;3529741;40;20917;-72
2021/06/22 03:49:06;;;;;;;5.00;2.80;;;;;;;16.50;nan;96044.63;3518141;40;20852;-73
2021/06/22 03:51:34;;;;;;;8.30;2.60;;;;;;;16.49;nan;96053.56;3530040;40;20833;-71
2021/06/22 03:54:02;;;;;;;3.70;2.50;;;;;;;16.48;nan;96045.78;3528328;40;20810;-72
2021/06/22 03:56:30;;;;;;;6.20;2.63;;;;;;;16.62;nan;96045.19;3528692;40;20475;-72
2021/06/22 03:58:59;;;;;;;4.37;2.57;;;;;;;16.59;nan;96034.97;3521443;40;20488;-73
2021/06/22 04:01:27;;;;;;;4.43;2.30;;;;;;;16.57;nan;96029.00;3531273;40;20532;-71
2021/06/22 04:03:55;;;;;;;9.77;3.03;;;;;;;16.72;nan;96038.00;3528573;40;20556;-72
2021/06/22 04:06:24;;;;;;;3.23;2.17;;;;;;;16.76;nan;96038.53;3530732;40;20515;-72
2021/06/22 04:08:52;;;;;;;12.43;2.77;;;;;;;16.80;nan;96034.59;3527857;40;20434;-72
2021/06/22 04:11:20;;;;;;;5.23;3.70;;;;;;;16.91;nan;96029.03;3528293;40;20458;-77
2021/06/22 04:13:48;;;;;;;9.10;3.67;;;;;;;17.08;nan;96013.25;3530048;40;20547;-78
2021/06/22 04:16:16;;;;;;;6.70;2.70;;;;;;;17.16;nan;96005.31;3529722;40;20460;-75
2021/06/22 04:18:44;;;;;;;12.57;3.43;;;;;;;17.18;nan;96014.75;3528870;40;20551;-76
2021/06/22 04:21:12;;;;;;;9.03;3.10;;;;;;;17.06;nan;96015.22;3526294;40;20456;-76
2021/06/22 04:23:41;;;;;;;4.13;3.10;;;;;;;16.40;nan;96026.25;3527633;40;20460;-78
2021/06/22 04:26:09;;;;;;;4.37;3.30;;;;;;;16.18;nan;96024.13;3529830;40;21284;-80
2021/06/22 04:28:37;;;;;;;8.10;3.30;;;;;;;16.40;nan;96023.59;3520879;40;20538;-76
2021/06/22 04:31:05;;;;;;;11.30;3.70;;;;;;;16.84;nan;96027.16;3527701;40;20528;-76
2021/06/22 04:33:34;;;;;;;9.07;4.10;;;;;;;16.89;nan;96027.53;3529365;40;20556;-75
2021/06/22 04:36:02;;;;;;;7.10;3.90;;;;;;;16.76;nan;96038.53;3529846;40;20773;-75
2021/06/22 04:38:30;;;;;;;9.00;3.70;;;;;;;16.96;nan;96033.84;3531509;40;20480;-76
2021/06/22 04:40:59;;;;;;;11.13;3.70;;;;;;;17.16;nan;96055.59;3518793;40;20487;-75
2021/06/22 04:43:27;;;;;;;11.80;3.30;;;;;;;17.18;nan;96062.38;3529095;40;20812;-76
2021/06/22 04:45:55;;;;;;;5.07;3.00;;;;;;;16.84;nan;96043.03;3531404;40;20978;-76
2021/06/22 04:48:23;;;;;;;10.23;3.20;;;;;;;16.85;nan;96068.50;3530168;40;20858;-78
2021/06/22 04:50:52;;;;;;;4.73;2.90;;;;;;;16.88;nan;96070.84;3528101;40;20471;-76
2021/06/22 04:53:20;;;;;;;6.80;2.63;;;;;;;17.15;nan;96069.78;3527745;40;20459;-75
2021/06/22 04:55:48;;;;;;;6.20;3.37;;;;;;;17.45;nan;96070.25;3530049;40;20818;-78
2021/06/22 04:58:18;;;;;;;5.70;2.93;;;;;;;17.64;nan;96071.75;3528549;40;20469;-74
2021/06/22 05:00:46;;;;;;;3.87;3.20;;;;;;;17.52;nan;96056.22;3519730;40;21073;-75
2021/06/22 05:03:14;;;;;;;11.03;2.60;;;;;;;17.77;nan;96083.53;3530757;40;20468;-75
2021/06/22 05:05:41;;;;;;;10.20;2.90;;;;;;;17.45;nan;96084.31;3519073;40;20810;-75
2021/06/22 05:08:09;;;;;;;7.70;2.60;;;;;;;17.09;nan;96087.16;3528852;40;20944;-76
2021/06/22 05:10:37;;;;;;;11.50;2.67;;;;;;;16.88;nan;96094.66;3529409;40;20621;-75
2021/06/22 05:13:05;;;;;;;6.37;3.00;;;;;;;17.34;nan;96089.88;3514807;40;20681;-75
2021/06/22 05:15:34;;;;;;;5.17;2.70;;;;;;;17.45;nan;96108.13;3528650;40;20479;-76
2021/06/22 05:18:03;;;;;;;11.50;3.47;;;;;;;17.47;nan;96100.03;3530689;40;20457;-77
2021/06/22 05:20:33;;;;;;;4.57;3.17;;;;;;;17.48;nan;96101.66;3530342;40;20710;-75
2021/06/22 05:23:04;;;;;;;9.60;3.07;;;;;;;17.56;nan;96097.25;3528099;40;20461;-74
2021/06/22 05:25:34;;;;;;;5.83;2.97;;;;;;;17.90;nan;96096.34;3528344;40;20941;-75
2021/06/22 05:28:03;;;;;;;7.90;3.47;;;;;;;18.04;nan;96108.13;3531151;40;20457;-74
2021/06/22 05:30:31;;;;;;;13.57;4.47;;;;;;;17.98;nan;96114.09;3529919;40;20876;-75
2021/06/22 05:33:00;;;;;;;13.10;3.80;;;;;;;17.90;nan;96101.66;3531557;40;20457;-75
2021/06/22 05:35:28;;;;;;;4.67;3.23;;;;;;;17.93;nan;96097.84;3529786;40;20474;-75
2021/06/22 05:37:56;;;;;;;6.47;4.07;;;;;;;18.06;nan;96110.63;3527343;40;20778;-75
2021/06/22 05:40:24;;;;;;;10.30;3.40;;;;;;;18.10;nan;96119.91;3529227;40;20457;-75
2021/06/22 05:42:53;;;;;;;14.13;4.17;;;;;;;17.69;nan;96112.66;3530077;40;20468;-75
2021/06/22 05:45:21;;;;;;;10.67;4.60;;;;;;;17.63;nan;96120.44;3527796;40;20934;-76
2021/06/22 05:47:50;;;;;;;6.70;4.67;;;;;;;17.17;nan;96115.44;3526567;40;20832;-76
2021/06/22 05:50:19;;;;;;;11.30;4.10;;;;;;;17.50;nan;96111.09;3528947;40;20466;-76
2021/06/22 05:52:49;;;;;;;8.73;4.87;;;;;;;17.33;nan;96117.34;3526303;40;20479;-76
2021/06/22 05:55:17;;;;;;;11.03;4.43;;;;;;;17.75;nan;96111.19;3530064;40;20593;-75
2021/06/22 05:57:47;;;;;;;12.37;5.20;;;;;;;17.77;nan;96117.16;3529768;40;20479;-75
2021/06/22 06:00:17;;;;;;;9.50;4.90;;;;;;;17.76;nan;96121.63;3531642;40;20528;-75
2021/06/22 06:02:45;;;;;;;13.30;4.33;;;;;;;17.85;nan;96119.84;3516757;40;20842;-75
2021/06/22 06:05:13;;;;;;;4.90;3.80;;;;;;;18.00;nan;96125.34;3526244;40;20524;-74
2021/06/22 06:07:43;;;;;;;9.70;4.30;;;;;;;18.15;nan;96123.72;3530392;40;20542;-73
2021/06/22 06:10:12;;;;;;;14.30;5.20;;;;;;;18.22;nan;96128.34;3526955;40;20908;-73
2021/06/22 06:12:41;;;;;;;11.30;5.23;;;;;;;17.89;nan;96137.06;3527446;40;20452;-73
2021/06/22 06:15:10;;;;;;;14.93;5.43;;;;;;;17.76;nan;96136.69;3529123;40;20518;-73
2021/06/22 06:17:38;;;;;;;10.80;5.43;;;;;;;17.43;nan;96141.03;3528790;40;20546;-73
2021/06/22 06:20:08;;;;;;;15.20;5.80;;;;;;;17.79;nan;96139.00;3527854;40;20480;-73
2021/06/22 06:22:37;;;;;;;11.57;4.43;;;;;;;18.11;nan;96150.69;3521724;40;20852;-72
2021/06/22 06:25:08;;;;;;;14.70;6.13;;;;;;;18.19;nan;96145.41;3526957;40;20507;-74
2021/06/22 06:27:47;;;;;;;8.70;4.50;;;;;;;18.14;nan;96137.94;3527768;40;20895;-72
2021/06/22 06:30:18;;;;;;;6.63;4.90;;;;;;;17.83;nan;96142.97;3510926;40;20855;-72
2021/06/22 06:32:47;;;;;;;7.90;5.10;;;;;;;17.72;nan;96143.28;3528955;40;20870;-73
2021/06/22 06:35:17;;;;;;;12.00;5.90;;;;;;;17.41;nan;96143.84;3530933;40;20702;-72
2021/06/22 06:37:45;;;;;;;9.60;7.57;;;;;;;17.39;nan;96153.75;3529066;40;20457;-72
2021/06/22 06:40:16;;;;;;;13.00;8.90;;;;;;;17.63;nan;96158.31;3526411;40;20539;-73
2021/06/22 06:42:44;;;;;;;16.83;9.93;;;;;;;17.68;nan;96161.31;3521776;40;20766;-71
2021/06/22 06:45:17;;;;;;;15.13;10.30;;;;;;;17.95;nan;96170.03;3528138;40;20837;-73
2021/06/22 06:47:46;;;;;;;21.50;9.87;;;;;;;18.12;nan;96162.94;3528237;40;20767;-71
2021/06/22 06:50:15;;;;;;;10.70;8.80;;;;;;;17.76;nan;96158.69;3528391;40;20948;-72
2021/06/22 06:52:43;;;;;;;12.50;7.30;;;;;;;17.62;nan;96150.53;3530550;40;20844;-74
2021/06/22 06:55:26;;;;;;;9.37;6.60;;;;;;;17.95;nan;96154.97;3529393;40;20582;-72
2021/06/22 06:57:58;;;;;;;11.63;7.60;;;;;;;18.17;nan;96165.94;3530729;40;20500;-73
2021/06/22 07:00:27;;;;;;;12.30;6.73;;;;;;;18.54;nan;96168.13;3526733;40;20567;-71
2021/06/22 07:02:57;;;;;;;19.83;7.70;;;;;;;18.47;nan;96172.44;3530376;40;20842;-72
2021/06/22 07:05:25;;;;;;;10.20;7.23;;;;;;;18.51;nan;96179.06;3520850;40;20783;-73
2021/06/22 07:07:54;;;;;;;10.20;7.40;;;;;;;17.60;nan;96182.44;3529784;40;20792;-72
2021/06/22 07:10:22;;;;;;;20.33;7.77;;;;;;;17.88;nan;96167.19;3507694;40;20740;-73
2021/06/22 07:12:50;;;;;;;10.13;7.60;;;;;;;17.92;nan;96181.78;3529436;40;20469;-72
2021/06/22 07:15:21;;;;;;;9.40;6.87;;;;;;;18.37;nan;96193.78;3521859;40;20496;-73
2021/06/22 07:17:49;;;;;;;19.37;8.70;;;;;;;17.81;nan;96186.50;3519166;40;20808;-72
2021/06/22 07:20:17;;;;;;;18.87;9.90;;;;;;;18.05;nan;96201.66;3518236;40;20774;-72
2021/06/22 07:22:45;;;;;;;16.60;10.10;;;;;;;17.84;nan;96202.94;3529253;40;20438;-74
2021/06/22 07:25:14;;;;;;;13.50;9.53;;;;;;;17.53;nan;96219.31;3527578;40;20910;-72
2021/06/22 07:27:42;;;;;;;12.47;8.70;;;;;;;17.19;nan;96219.31;3529598;40;20861;-73
2021/06/22 07:30:12;;;;;;;23.63;8.77;;;;;;;17.46;nan;96220.94;3529485;40;20571;-71
2021/06/22 07:32:41;;;;;;;14.00;10.00;;;;;;;17.82;nan;96219.94;3524295;40;20464;-74
2021/06/22 07:35:10;;;;;;;12.50;9.00;;;;;;;17.88;nan;96217.53;3529887;40;20854;-72
2021/06/22 07:37:40;;;;;;;12.47;9.23;;;;;;;17.81;nan;96219.13;3528866;40;20454;-73
2021/06/22 07:40:09;;;;;;;16.70;9.50;;;;;;;18.33;nan;96218.16;3528653;40;21079;-72
2021/06/22 07:42:37;;;;;;;17.47;8.23;;;;;;;18.37;nan;96230.91;3530047;40;20776;-72
2021/06/22 07:45:10;;;;;;;12.10;8.30;;;;;;;18.24;nan;96229.72;3520380;40;20469;-71
2021/06/22 07:47:38;;;;;;;12.03;8.47;;;;;;;18.48;nan;96228.91;3531495;40;20464;-73
2021/06/22 07:50:10;;;;;;;11.50;9.20;;;;;;;18.63;nan;96227.28;3527799;40;20461;-73
2021/06/22 07:52:38;;;;;;;11.97;8.80;;;;;;;18.71;nan;96216.69;3528471;40;20441;-72
2021/06/22 07:55:13;;;;;;;11.87;7.73;;;;;;;19.12;nan;96203.41;3530715;40;20489;-73
2021/06/22 07:57:43;;;;;;;14.83;8.13;;;;;;;19.30;nan;96205.03;3528836;40;20473;-72
2021/06/22 08:02:55;;;;;;;10.13;8.10;;;;;;;20.22;nan;96201.88;3527102;40;20483;-73
2021/06/22 08:05:24;;;;;;;14.50;8.43;;;;;;;19.64;nan;96193.31;3527284;40;20512;-73
2021/06/22 08:07:52;;;;;;;20.80;7.50;;;;;;;20.45;nan;96202.72;3519782;40;20837;-71
2021/06/22 08:10:20;;;;;;;18.07;7.63;;;;;;;21.09;nan;96207.75;3529343;40;20575;-72
2021/06/22 08:12:48;;;;;;;9.37;7.30;;;;;;;21.21;nan;96205.47;3529651;40;20805;-73
2021/06/22 08:15:17;;;;;;;7.43;5.93;;;;;;;21.72;nan;96202.13;3529208;40;20477;-72
2021/06/22 08:17:45;;;;;;;6.63;5.30;;;;;;;22.21;nan;96198.81;3532259;40;20452;-72
2021/06/22 08:20:14;;;;;;;13.40;6.30;;;;;;;22.97;nan;96197.50;3527402;40;20793;-72
2021/06/22 08:22:44;;;;;;;10.10;5.40;;;;;;;21.36;nan;96202.00;3532940;40;20450;-71
2021/06/22 08:25:13;;;;;;;9.23;5.97;;;;;;;20.93;nan;96191.91;3528588;40;20473;-73
2021/06/22 08:27:42;;;;;;;10.33;5.13;;;;;;;21.31;nan;96189.22;3532891;40;20444;-72
2021/06/22 08:30:11;;;;;;;5.27;4.10;;;;;;;21.57;nan;96191.47;3528414;40;20553;-72
2021/06/22 08:32:39;;;;;;;8.47;4.17;;;;;;;21.06;nan;96199.28;3517776;40;20474;-72
2021/06/22 08:35:08;;;;;;;5.90;4.47;;;;;;;20.81;nan;96198.69;3530841;40;20661;-73
2021/06/22 08:37:36;;;;;;;6.50;4.30;;;;;;;20.62;nan;96202.63;3523035;40;20838;-72
2021/06/22 08:40:08;;;;;;;5.43;3.70;;;;;;;20.06;nan;96211.59;3535143;40;20521;-73
2021/06/22 08:42:37;;;;;;;8.23;4.13;;;;;;;19.97;nan;96207.31;3531788;40;20835;-73
2021/06/22 08:45:08;;;;;;;8.33;4.10;;;;;;;19.85;nan;96214.03;3532056;40;20473;-72
2021/06/22 08:47:36;;;;;;;15.73;3.90;;;;;;;20.45;nan;96213.38;3530885;40;20788;-73
2021/06/22 08:50:05;;;;;;;20.97;4.63;;;;;;;20.45;nan;96226.66;3530784;40;21139;-72
2021/06/22 08:52:35;;;;;;;14.23;4.20;;;;;;;19.83;nan;96210.72;3528888;40;20830;-73
2021/06/22 08:55:08;;;;;;;4.47;4.00;;;;;;;19.62;nan;96221.88;3527436;40;20841;-73
2021/06/22 08:57:36;;;;;;;13.20;4.80;;;;;;;19.41;nan;96214.50;3528573;40;20473;-72
2021/06/22 09:00:05;;;;;;;7.20;4.90;;;;;;;19.85;nan;96216.69;3529029;40;20566;-72
2021/06/22 09:02:34;;;;;;;9.30;4.70;;;;;;;20.02;nan;96210.31;3519781;40;20846;-73
2021/06/22 09:05:04;;;;;;;6.27;4.90;;;;;;;19.77;nan;96219.38;3532074;40;20451;-75
2021/06/22 09:07:45;;;;;;;11.80;4.17;;;;;;;19.92;nan;96234.44;3534883;40;20441;-72
2021/06/22 09:10:22;;;;;;;7.00;4.73;;;;;;;20.26;nan;96227.13;3522124;40;20481;-72
2021/06/22 09:12:51;;;;;;;9.80;5.30;;;;;;;20.69;nan;96227.53;3533880;40;20846;-73
2021/06/22 09:15:22;;;;;;;6.77;4.70;;;;;;;21.13;nan;96227.66;3532382;40;20699;-72
2021/06/22 09:17:50;;;;;;;4.47;3.33;;;;;;;21.13;nan;96224.19;3532284;40;20464;-73
2021/06/22 09:20:33;;;;;;;4.53;3.40;;;;;;;20.98;nan;96220.66;3531605;40;20469;-73
2021/06/22 09:23:14;;;;;;;10.70;3.70;;;;;;;21.23;nan;96215.91;3529891;40;20862;-73
2021/06/22 09:25:44;;;;;;;6.70;4.10;;;;;;;21.18;nan;96223.63;3534026;40;20849;-71
2021/06/22 09:28:13;;;;;;;5.40;4.57;;;;;;;20.62;nan;96237.22;3532801;40;20876;-71
2021/06/22 09:30:46;;;;;;;15.90;5.10;;;;;;;20.30;nan;96242.53;3533505;40;20480;-73
2021/06/22 09:33:26;;;;;;;5.50;4.57;;;;;;;20.08;nan;96248.66;3533970;40;20504;-72
2021/06/22 09:36:00;;;;;;;6.10;5.10;;;;;;;20.43;nan;96254.44;3530924;40;20816;-72
2021/06/22 09:38:30;;;;;;;12.23;5.60;;;;;;;20.44;nan;96261.41;3529095;40;20916;-73
2021/06/22 09:41:09;;;;;;;6.50;4.73;;;;;;;20.03;nan;96259.81;3530184;40;20583;-73
2021/06/22 09:43:43;;;;;;;7.50;5.37;;;;;;;19.48;nan;96272.06;3533166;40;20542;-72
2021/06/22 09:46:13;;;;;;;4.90;3.90;;;;;;;19.69;nan;96278.63;3532887;40;20656;-73
2021/06/22 09:48:48;;;;;;;5.87;4.87;;;;;;;19.59;nan;96270.88;3529530;40;20465;-71
2021/06/22 09:51:16;;;;;;;14.73;6.03;;;;;;;19.28;nan;96276.88;3523802;40;20495;-72
2021/06/22 09:53:44;;;;;;;8.63;6.63;;;;;;;18.92;nan;96277.22;3522527;40;20988;-75
2021/06/22 09:56:24;;;;;;;9.40;6.60;;;;;;;19.01;nan;96277.22;3533278;40;21121;-71
2021/06/22 09:58:52;;;;;;;11.17;6.60;;;;;;;18.80;nan;96270.59;3529894;40;20477;-73
2021/06/22 10:01:32;;;;;;;9.37;7.10;;;;;;;18.76;nan;96259.47;3535444;40;20473;-74
2021/06/22 10:04:19;;;;;;;9.43;7.00;;;;;;;18.73;nan;96240.38;3529747;40;20893;-75
2021/06/22 10:06:53;;;;;;;9.57;6.20;;;;;;;18.57;nan;96246.50;3530369;40;20787;-74
2021/06/22 10:09:23;;;;;;;9.70;5.20;;;;;;;18.39;nan;96251.94;3531188;40;20465;-74
2021/06/22 10:12:04;;;;;;;12.37;6.70;;;;;;;18.58;nan;96259.59;3531121;40;20932;-75
2021/06/22 10:14:36;;;;;;;8.10;4.93;;;;;;;18.67;nan;96273.69;3526159;40;20606;-75
2021/06/22 10:17:06;;;;;;;5.63;4.83;;;;;;;18.42;nan;96286.06;3530129;40;20455;-74
2021/06/22 10:19:37;;;;;;;6.47;4.37;;;;;;;17.94;nan;96277.81;3529275;40;20501;-75
2021/06/22 10:22:07;;;;;;;8.77;4.83;;;;;;;18.24;nan;96264.16;3520138;40;20472;-75
2021/06/22 10:24:38;;;;;;;6.87;4.10;;;;;;;18.30;nan;96282.06;3529404;40;20459;-75
2021/06/22 10:27:08;;;;;;;7.40;5.17;;;;;;;18.33;nan;96282.56;3531545;40;20446;-74
2021/06/22 10:29:36;;;;;;;7.97;5.33;;;;;;;18.28;nan;96292.81;3512458;40;20970;-75
2021/06/22 10:32:06;;;;;;;6.80;4.73;;;;;;;18.10;nan;96287.63;3521933;40;20472;-76
2021/06/22 10:34:36;;;;;;;8.10;5.77;;;;;;;17.97;nan;96298.69;3531504;40;20478;-75
2021/06/22 10:37:09;;;;;;;12.47;6.63;;;;;;;17.98;nan;96300.34;3533140;40;20972;-73
2021/06/22 10:39:42;;;;;;;11.67;6.30;;;;;;;18.17;nan;96295.78;3523751;40;20463;-74
2021/06/22 10:42:14;;;;;;;9.00;7.20;;;;;;;18.67;nan;96300.22;3527299;40;20469;-73
2021/06/22 10:44:52;;;;;;;12.00;7.50;;;;;;;18.99;nan;96303.91;3530456;40;20472;-75
2021/06/22 10:47:28;;;;;;;9.07;6.90;;;;;;;18.92;nan;96305.59;3531165;40;20453;-74
2021/06/22 10:49:58;;;;;;;10.63;5.80;;;;;;;18.57;nan;96295.06;3512788;40;20809;-74
2021/06/22 10:52:50;;;;;;;8.30;5.40;;;;;;;19.11;nan;96289.34;3531247;40;21035;-73
2021/06/22 10:55:20;;;;;;;5.20;4.43;;;;;;;19.10;nan;96292.16;3529946;40;20465;-74
2021/06/22 10:58:09;;;;;;;8.43;4.60;;;;;;;19.09;nan;96304.63;3528246;40;20483;-73
2021/06/22 11:01:09;;;;;;;5.30;3.53;;;;;;;19.11;nan;96312.38;3530650;40;21148;-72
2021/06/22 11:03:44;;;;;;;7.63;3.80;;;;;;;19.56;76.66;96305.72;3606311;39;20760;-74
2021/06/22 11:06:24;;;;;;;10.47;5.17;;;;;;;19.45;77.68;96309.56;3575251;39;20449;-75
2021/06/22 11:08:53;;;;;;;8.80;5.30;;;;;;;19.35;79.24;96306.25;3580598;39;20460;-75
2021/06/22 11:11:24;;;;;;;8.97;6.63;;;;;;;19.03;80.05;96304.44;3576484;39;20929;-75
2021/06/22 11:13:55;;;;;;;8.40;6.10;;;;;;;19.30;79.70;96305.91;3573561;39;20815;-74
2021/06/22 11:16:31;;;;;;;7.70;5.50;;;;;;;18.84;79.01;96310.91;3581095;39;20864;-76
2021/06/22 11:19:06;;;;;;;9.57;5.73;;;;;;;18.96;78.60;96309.56;3584072;39;20471;-75
2021/06/22 11:21:37;;;;;;;5.90;4.97;;;;;;;18.82;77.01;96318.16;3585033;39;20968;-76
2021/06/22 11:24:07;;;;;;;6.20;4.90;;;;;;;18.69;79.39;96311.47;3583671;39;20464;-75
2021/06/22 11:27:00;;;;;;;9.90;5.57;;;;;;;18.56;80.38;96316.44;3584237;39;20967;-74
2021/06/22 11:29:51;;;;;;;7.30;5.73;;;;;;;18.24;82.07;96312.69;3579457;39;20489;-75
2021/06/22 11:32:35;;;;;;;10.43;6.53;;;;;;;18.48;81.19;96317.22;3573332;40;20559;-73
2021/06/22 11:35:11;;;;;;;8.90;6.90;;;;;;;18.65;80.96;96322.59;3573951;39;20762;-75
2021/06/22 11:37:40;;;;;;;9.47;6.80;;;;;;;18.40;81.60;96321.69;3580101;39;20420;-76
2021/06/22 11:40:14;;;;;;;10.50;7.27;;;;;;;18.31;81.71;96318.19;3579938;39;20491;-72
2021/06/22 11:42:43;;;;;;;18.20;10.47;;;;;;;18.16;81.37;96326.72;3576398;39;20550;-72
2021/06/22 11:45:19;;;;;;;13.23;8.20;;;;;;;18.15;81.65;96322.44;3574456;39;20450;-74
2021/06/22 11:47:59;;;;;;;10.20;5.43;;;;;;;17.91;80.64;96315.19;3574060;39;20471;-73
2021/06/22 11:50:50;;;;;;;7.13;5.03;;;;;;;18.12;81.53;96319.28;3577161;39;20691;-74
2021/06/22 11:53:18;;;;;;;6.40;5.23;;;;;;;18.17;81.92;96325.75;3577723;39;20569;-73
2021/06/22 11:55:54;;;;;;;8.57;4.60;;;;;;;18.00;82.43;96313.44;3582596;39;20479;-72
2021/06/22 11:58:25;;;;;;;9.20;5.03;;;;;;;18.05;83.20;96313.75;3580300;39;20746;-75
2021/06/22 12:00:54;;;;;;;11.70;4.17;;;;;;;17.76;82.17;96312.28;3583848;39;20980;-73
2021/06/22 12:03:26;;;;;;;13.70;4.50;;;;;;;17.66;81.41;96314.22;3585581;39;20471;-73
2021/06/22 12:06:03;;;;;;;5.57;4.60;;;;;;;17.39;83.03;96320.50;3583638;39;20603;-73